Time;durP1;ratioP1;P1;durP2;ratioP2;P2;SDS_P1;SDS_P2;PMS_P1;PMS_P2;Temp;Humidity;BMP_temperature;BMP_pressure;BME280_temperature;BME280_humidity;BME280_pressure;Samples;Min_cycle;Max_cycle;Signal;HPM_P1;HPM_P2
2021/12/24 00:01:06;;;;;;;5.37;3.60;;;8.80;86.90;;;8.86;64.75;96942.50;5028725;28;20057;-41
2021/12/24 00:03:35;;;;;;;4.53;3.20;;;8.70;87.00;;;8.76;64.58;96925.94;5028051;28;20059;-40
2021/12/24 00:06:05;;;;;;;6.93;3.20;;;8.50;87.10;;;8.70;64.80;96931.91;5027959;28;20059;-41
2021/12/24 00:08:35;;;;;;;5.40;3.47;;;8.40;87.40;;;8.63;64.65;96928.28;5028192;28;20049;-40
2021/12/24 00:11:05;;;;;;;8.27;3.83;;;8.30;87.60;;;8.55;64.76;96934.41;5026798;28;20060;-40
2021/12/24 00:13:39;;;;;;;5.33;3.60;;;8.30;87.60;;;8.53;64.80;96938.19;5027041;28;20041;-40
2021/12/24 00:16:22;;;;;;;;;;;8.20;87.80;;;8.44;64.55;96932.91;5027718;28;20376;-40
2021/12/24 00:18:58;;;;;;;6.83;3.47;;;8.20;86.90;;;8.43;64.82;96931.25;5028096;28;19939;-40
2021/12/24 00:37:33;;;;;;;5.00;3.37;;;7.90;88.60;;;8.14;65.21;96918.41;5027295;28;20052;-40
2021/12/24 00:42:39;;;;;;;5.97;3.70;;;7.80;88.60;;;8.11;65.08;96915.28;5027248;28;20255;-41
2021/12/24 00:45:08;;;;;;;7.60;3.83;;;7.90;88.60;;;8.08;65.05;96919.06;5026835;28;20055;-40
2021/12/24 00:47:36;;;;;;;4.73;3.50;;;7.80;88.80;;;8.06;64.92;96908.66;5027309;28;20202;-40
2021/12/24 00:50:08;;;;;;;6.40;3.50;;;7.80;88.80;;;8.05;65.07;96903.50;5027012;28;20052;-40
2021/12/24 00:52:50;;;;;;;6.67;3.60;;;7.80;88.80;;;8.07;65.12;96901.50;5025711;28;20069;-40
2021/12/24 00:55:26;;;;;;;6.20;3.43;;;7.90;88.80;;;8.06;64.96;96906.00;5026443;28;20072;-41
2021/12/24 00:58:01;;;;;;;8.70;4.00;;;7.90;88.40;;;8.04;64.95;96897.34;5026265;28;20045;-40
2021/12/24 01:00:38;;;;;;;4.87;3.00;;;7.80;88.30;;;8.03;64.90;96901.00;5026248;28;20057;-40
2021/12/24 01:03:11;;;;;;;5.87;3.20;;;7.80;88.20;;;8.02;64.90;96906.47;5027508;28;20060;-40
2021/12/24 01:05:41;;;;;;;5.90;3.60;;;7.80;88.40;;;8.02;64.96;96898.50;5026666;28;20246;-40
2021/12/24 01:08:13;;;;;;;5.13;3.43;;;7.70;88.40;;;7.99;64.97;96896.22;5026633;28;20049;-40
2021/12/24 01:10:53;;;;;;;6.33;3.90;;;7.70;88.40;;;7.98;65.00;96898.00;5025450;28;20049;-40
2021/12/24 01:13:21;;;;;;;8.57;4.33;;;7.80;88.30;;;7.99;65.15;96897.03;5027256;28;20331;-40
2021/12/24 01:16:02;;;;;;;7.90;4.50;;;7.70;88.50;;;7.98;64.98;96900.66;5027509;28;20053;-40
2021/12/24 01:21:21;;;;;;;8.57;5.17;;;7.80;88.50;;;7.97;65.23;96896.38;5026797;28;20063;-40
2021/12/24 01:23:52;;;;;;;6.93;4.50;;;7.70;88.60;;;7.96;65.27;96880.63;5026429;28;20057;-40
2021/12/24 01:26:32;;;;;;;7.20;4.27;;;7.70;88.90;;;7.95;65.01;96890.41;5041725;28;20360;-40
2021/12/24 01:42:44;;;;;;;4.97;2.80;;;7.70;89.00;;;7.91;65.05;96888.22;5024433;28;20061;-40
2021/12/24 01:45:20;;;;;;;5.33;3.53;;;7.70;88.80;;;7.92;65.19;96895.19;5026360;28;20368;-40
2021/12/24 01:47:52;;;;;;;6.73;3.53;;;7.70;88.50;;;7.92;65.00;96895.19;5027224;28;20071;-40
2021/12/24 01:50:23;;;;;;;4.30;3.10;;;7.70;88.50;;;7.92;65.07;96889.88;5026241;28;20063;-40
2021/12/24 01:52:53;;;;;;;4.20;2.67;;;7.70;88.50;;;7.94;65.10;96886.06;5025599;28;20060;-40
2021/12/24 01:55:23;;;;;;;6.57;3.90;;;7.70;88.40;;;7.96;65.11;96885.91;5027007;28;20258;-43
2021/12/24 01:57:52;;;;;;;6.07;3.37;;;7.70;88.30;;;7.97;64.96;96882.25;5024986;28;20053;-40
2021/12/24 02:00:25;;;;;;;5.47;3.27;;;7.80;88.00;;;7.98;64.97;96878.63;5026862;28;20176;-41
2021/12/24 02:02:53;;;;;;;4.70;3.07;;;7.80;88.00;;;7.98;64.85;96879.44;5026899;28;20057;-40
2021/12/24 02:05:23;;;;;;;6.60;4.00;;;7.80;87.90;;;7.99;65.04;96880.31;5027117;28;20634;-40
2021/12/24 02:07:52;;;;;;;6.90;3.60;;;7.80;87.90;;;7.99;64.94;96875.00;5026886;28;20248;-40
2021/12/24 02:10:20;;;;;;;4.43;2.77;;;7.80;87.60;;;8.00;64.82;96879.28;5026785;28;20057;-40
2021/12/24 02:12:50;;;;;;;5.07;2.90;;;7.80;87.50;;;8.00;64.95;96864.22;5028190;28;20049;-41
2021/12/24 02:15:48;;;;;;;5.77;3.27;;;7.80;87.60;;;7.98;64.96;96875.97;5027754;28;20049;-40
2021/12/24 02:29:10;;;;;;;6.47;3.70;;;7.80;87.90;;;7.96;65.15;96854.09;5029404;28;20060;-40
2021/12/24 02:31:38;;;;;;;4.07;2.53;;;7.80;88.10;;;7.98;65.30;96858.25;5029434;28;20061;-41
2021/12/24 02:34:06;;;;;;;3.83;2.87;;;7.80;88.10;;;8.01;65.12;96851.81;5028068;28;20053;-40
2021/12/24 02:36:35;;;;;;;5.67;3.63;;;7.90;88.30;;;8.06;65.22;96850.31;5028784;28;20055;-41
2021/12/24 02:39:05;;;;;;;6.97;3.67;;;7.90;88.30;;;8.08;65.36;96837.72;5030000;28;20239;-40
2021/12/24 02:41:33;;;;;;;6.00;3.57;;;8.00;88.50;;;8.14;65.30;96832.75;5029500;28;20052;-40
2021/12/24 02:44:01;;;;;;;4.70;2.27;;;8.10;88.60;;;8.17;65.45;96821.81;5029875;28;20080;-40
2021/12/24 02:46:41;;;;;;;4.27;2.40;;;8.20;88.60;;;8.20;65.81;96822.31;5029516;28;20046;-41
2021/12/24 02:49:13;;;;;;;5.70;3.37;;;8.20;88.80;;;8.28;65.84;96816.19;5028216;28;20069;-41
2021/12/24 02:54:28;;;;;;;4.97;2.97;;;8.40;88.60;;;8.43;65.62;96806.59;5028684;28;20237;-40
2021/12/24 02:57:06;;;;;;;4.27;2.83;;;8.50;88.50;;;8.47;65.67;96807.91;5028924;28;20050;-41
2021/12/24 03:00:19;;;;;;;3.60;2.30;;;8.50;88.30;;;8.53;65.48;96817.00;5028834;28;20041;-41
2021/12/24 03:02:49;;;;;;;4.83;2.87;;;8.60;88.30;;;8.57;65.53;96810.38;5028814;28;20057;-40
2021/12/24 03:05:19;;;;;;;3.13;1.90;;;8.60;88.20;;;8.58;65.60;96811.19;5029652;28;20055;-40
2021/12/24 03:07:49;;;;;;;5.07;2.20;;;8.50;88.10;;;8.61;65.74;96810.88;5028566;28;20054;-41
2021/12/24 03:10:20;;;;;;;5.03;2.20;;;8.60;88.00;;;8.68;65.41;96811.81;5030775;28;20049;-40
2021/12/24 03:12:52;;;;;;;5.13;2.60;;;8.70;88.00;;;8.70;65.56;96812.47;5027590;28;20363;-40
2021/12/24 03:15:24;;;;;;;4.60;2.40;;;8.70;88.00;;;8.74;65.59;96810.31;5027776;28;20061;-41
2021/12/24 03:17:56;;;;;;;4.73;2.17;;;8.80;87.70;;;8.74;65.36;96813.78;5017118;28;20088;-41
2021/12/24 03:20:25;;;;;;;4.80;2.30;;;8.80;87.70;;;8.78;65.47;96808.97;5024762;28;20080;-41
2021/12/24 03:25:30;;;;;;;3.43;2.30;;;8.80;87.50;;;8.81;65.50;96796.19;5040411;28;20260;-41
2021/12/24 03:27:58;;;;;;;3.07;1.97;;;8.90;87.60;;;8.87;65.52;96792.03;5008114;28;20050;-40
2021/12/24 03:30:27;;;;;;;4.63;3.10;;;9.00;87.30;;;8.91;65.48;96788.03;5040730;28;20258;-41
2021/12/24 03:32:54;;;;;;;4.27;3.27;;;8.90;87.30;;;8.93;65.15;96782.56;5022776;28;20068;-40
2021/12/24 03:35:22;;;;;;;4.23;2.50;;;9.00;87.20;;;8.94;65.21;96771.78;5023493;28;20058;-40
2021/12/24 03:37:50;;;;;;;6.33;3.37;;;9.00;87.30;;;8.92;65.42;96771.13;5040349;28;20233;-40
2021/12/24 03:40:18;;;;;;;5.17;3.60;;;9.00;87.40;;;8.94;65.50;96769.13;5008822;28;20448;-41
2021/12/24 03:42:46;;;;;;;5.27;2.80;;;9.00;87.40;;;8.94;65.38;96766.47;5024331;28;20064;-40
2021/12/24 03:45:29;;;;;;;4.87;3.13;;;9.10;87.70;;;9.00;65.38;96772.91;5007761;28;20053;-40
2021/12/24 03:48:02;;;;;;;5.33;3.67;;;9.10;87.50;;;9.04;65.37;96768.91;5008738;28;20046;-40
2021/12/24 03:50:50;;;;;;;6.37;3.43;;;9.20;87.40;;;9.05;65.55;96776.72;5040186;28;20049;-40
2021/12/24 03:56:04;;;;;;;4.00;3.00;;;9.20;87.20;;;9.09;65.29;96768.38;5008671;28;20056;-41
2021/12/24 03:58:33;;;;;;;6.87;3.50;;;9.20;87.30;;;9.13;65.56;96765.22;5022299;28;20344;-40
2021/12/24 04:01:19;;;;;;;6.53;4.93;;;9.30;87.50;;;9.17;65.50;96773.66;5012562;28;20052;-41
2021/12/24 04:04:25;;;;;;;5.40;3.80;;;9.30;87.40;;;9.15;65.53;96773.00;5007922;28;20057;-41
2021/12/24 04:07:13;;;;;;;3.63;2.53;;;9.20;87.40;;;9.20;65.41;96771.47;5038707;28;20390;-41
2021/12/24 04:10:05;;;;;;;4.60;2.60;;;9.40;87.50;;;9.23;65.59;96771.16;5011055;28;20359;-41
2021/12/24 04:12:52;;;;;;;5.37;3.10;;;9.40;88.00;;;9.28;65.62;96770.63;5008358;28;20064;-41
2021/12/24 04:15:20;;;;;;;3.60;2.53;;;9.50;87.30;;;9.33;65.06;96762.97;5007591;28;20735;-41
2021/12/24 04:17:49;;;;;;;4.93;3.00;;;9.50;87.10;;;9.36;65.37;96759.94;5022986;28;20068;-41
2021/12/24 04:25:50;;;;;;;4.83;2.87;;;9.50;87.10;;;9.30;65.46;96765.13;5022212;28;20053;-41
2021/12/24 04:28:19;;;;;;;4.00;2.90;;;9.50;87.20;;;9.34;65.50;96761.13;5022832;28;20045;-41
2021/12/24 04:30:51;;;;;;;4.73;3.17;;;9.50;87.10;;;9.36;65.38;96753.81;5007673;28;20058;-41
2021/12/24 04:33:27;;;;;;;5.30;3.90;;;9.50;87.10;;;9.38;65.55;96757.97;5039711;28;20046;-41
2021/12/24 04:36:08;;;;;;;3.93;3.17;;;9.50;87.10;;;9.39;65.46;96754.28;5037615;28;20060;-41
2021/12/24 05:01:11;;;;;;;4.97;2.60;;;9.50;87.70;;;9.39;65.18;96734.88;5039075;28;20058;-41
2021/12/24 05:03:47;;;;;;;4.73;2.93;;;9.50;88.00;;;9.30;65.98;96733.25;5022893;28;20065;-41
2021/12/24 05:06:29;;;;;;;4.37;2.20;;;9.50;88.30;;;9.30;66.15;96733.25;5021899;28;20054;-41
2021/12/24 05:09:04;;;;;;;5.80;2.87;;;9.50;88.40;;;9.32;66.17;96744.53;5022327;28;20056;-41
2021/12/24 05:11:33;;;;;;;5.50;2.67;;;9.40;88.30;;;9.31;66.11;96740.25;5023394;28;20130;-41
2021/12/24 05:14:01;;;;;;;4.40;3.17;;;9.50;88.50;;;9.30;66.21;96739.38;5022055;28;20045;-41
2021/12/24 05:16:50;;;;;;;4.00;3.30;;;9.40;88.70;;;9.31;66.06;96733.09;5009300;28;20050;-41
2021/12/24 05:22:40;;;;;;;3.73;2.80;;;9.40;88.60;;;9.32;66.28;96732.06;5038818;28;20053;-41
2021/12/24 05:25:13;;;;;;;4.63;2.88;;;9.50;88.70;;;9.38;65.89;96736.72;5022769;28;20058;-41
2021/12/24 05:27:40;;;;;;;5.00;3.20;;;9.50;88.70;;;9.39;65.88;96742.84;5021148;28;20056;-41
2021/12/24 05:30:09;;;;;;;4.60;3.33;;;9.50;88.60;;;9.41;65.91;96736.34;5021887;28;20364;-41
2021/12/24 05:32:37;;;;;;;3.97;2.90;;;9.50;88.50;;;9.41;65.76;96740.81;5021544;28;20061;-41
2021/12/24 05:35:06;;;;;;;3.93;2.80;;;9.50;88.40;;;9.43;65.75;96744.94;5022258;28;20050;-41
2021/12/24 05:37:37;;;;;;;5.57;3.07;;;9.60;88.20;;;9.46;65.86;96747.28;5006015;28;20255;-41
2021/12/24 05:40:07;;;;;;;5.37;3.00;;;9.60;88.10;;;9.38;65.75;96733.19;5020711;28;20382;-41
2021/12/24 05:42:35;;;;;;;5.40;3.07;;;9.60;88.30;;;9.39;65.79;96742.84;5005014;28;20060;-41
2021/12/24 05:45:06;;;;;;;5.03;3.40;;;9.60;88.10;;;9.43;65.77;96736.16;5039860;28;20075;-41
2021/12/24 05:48:00;;;;;;;5.70;3.10;;;9.60;88.00;;;9.41;65.86;96740.81;5008857;28;20054;-41
2021/12/24 05:50:28;;;;;;;7.00;4.63;;;9.60;88.20;;;9.45;66.20;96732.31;5042567;28;20054;-41
2021/12/24 05:53:15;;;;;;;5.30;3.17;;;9.60;88.20;;;9.49;65.74;96737.28;5012757;28;20048;-41
2021/12/24 05:56:01;;;;;;;4.93;3.60;;;9.60;88.20;;;9.37;66.30;96737.69;5012300;28;20069;-41
2021/12/24 05:58:30;;;;;;;5.30;3.17;;;9.60;88.70;;;9.39;66.35;96742.84;5026233;28;20056;-41
2021/12/24 06:00:58;;;;;;;6.47;3.57;;;9.60;88.60;;;9.46;66.13;96741.13;5042605;28;20068;-41
2021/12/24 06:03:38;;;;;;;5.30;3.43;;;9.70;88.70;;;9.52;66.32;96747.56;5041652;28;20084;-41
2021/12/24 06:06:06;;;;;;;5.47;3.17;;;9.70;88.80;;;9.52;66.45;96747.56;5008545;28;20058;-41
2021/12/24 06:08:34;;;;;;;8.97;3.43;;;9.70;88.80;;;9.56;66.32;96746.22;5010034;28;20053;-42
2021/12/24 06:11:06;;;;;;;4.70;3.40;;;9.70;88.70;;;9.53;66.05;96752.69;5009899;28;20056;-41
2021/12/24 06:13:35;;;;;;;4.67;3.30;;;9.80;88.80;;;9.59;66.32;96751.16;5009040;28;20052;-41
2021/12/24 06:16:06;;;;;;;7.37;4.57;;;9.80;89.10;;;9.63;66.19;96742.69;5009183;28;20053;-41
2021/12/24 06:18:38;;;;;;;4.73;3.53;;;9.80;89.30;;;9.63;66.18;96748.00;5010528;28;20053;-41
2021/12/24 06:21:07;;;;;;;5.43;3.63;;;9.80;89.50;;;9.55;66.46;96737.41;5009756;28;20217;-42
2021/12/24 06:23:38;;;;;;;5.50;3.73;;;9.80;90.00;;;9.57;66.60;96735.38;5009215;28;20062;-41
2021/12/24 06:26:07;;;;;;;5.97;3.53;;;9.70;90.20;;;9.59;66.59;96741.34;5010256;28;20050;-41
2021/12/24 06:28:36;;;;;;;7.20;5.43;;;9.70;90.40;;;9.61;66.75;96727.91;5008859;28;20038;-42
2021/12/24 06:31:05;;;;;;;4.70;3.33;;;9.70;90.40;;;9.57;67.02;96731.91;5009775;28;20056;-41
2021/12/24 06:33:34;;;;;;;6.40;3.57;;;9.70;90.60;;;9.58;66.87;96741.56;5009545;28;20048;-42
2021/12/24 06:36:02;;;;;;;8.33;3.53;;;9.70;90.50;;;9.62;66.59;96756.13;5009489;28;20357;-42
2021/12/24 06:38:30;;;;;;;6.23;3.73;;;9.70;90.50;;;9.61;66.44;96747.31;5009504;28;20050;-42
2021/12/24 06:40:57;;;;;;;8.00;4.10;;;9.80;90.50;;;9.59;66.61;96756.47;5009308;28;20348;-41
2021/12/24 06:43:25;;;;;;;6.00;3.90;;;9.70;90.60;;;9.60;66.65;96756.31;5007945;28;20247;-42
2021/12/24 06:45:54;;;;;;;4.80;3.50;;;9.80;90.60;;;9.56;66.74;96762.97;5007734;28;20056;-42
2021/12/24 06:48:22;;;;;;;4.43;3.67;;;9.70;90.90;;;9.59;66.84;96767.09;5009091;28;20071;-41
2021/12/24 06:50:50;;;;;;;6.27;3.40;;;9.70;90.90;;;9.57;67.20;96774.44;5009861;28;20045;-41
2021/12/24 06:53:18;;;;;;;5.50;3.67;;;9.80;91.00;;;9.63;66.61;96769.25;5009091;28;20220;-42
2021/12/24 06:55:46;;;;;;;7.87;4.10;;;9.80;91.00;;;9.64;66.66;96762.09;5023809;28;20053;-41
2021/12/24 06:58:15;;;;;;;4.43;3.27;;;9.80;90.90;;;9.66;66.81;96762.75;5023541;28;20343;-42
2021/12/24 07:00:45;;;;;;;6.03;3.57;;;9.80;90.80;;;9.72;66.59;96775.31;5010428;28;20064;-41
2021/12/24 07:03:13;;;;;;;6.53;4.63;;;9.90;90.90;;;9.77;66.73;96762.34;5041264;28;20368;-41
2021/12/24 07:05:41;;;;;;;5.33;3.70;;;9.90;90.80;;;9.77;66.86;96756.19;5009007;28;20057;-41
2021/12/24 07:08:09;;;;;;;7.80;3.97;;;9.90;90.80;;;9.80;66.32;96751.34;5009371;28;20060;-42
2021/12/24 07:10:36;;;;;;;6.00;4.20;;;9.90;90.60;;;9.79;66.68;96762.13;5009222;28;20050;-41
2021/12/24 07:13:04;;;;;;;4.83;4.20;;;9.90;90.80;;;9.74;66.51;96760.03;5007983;28;20054;-41
2021/12/24 07:15:32;;;;;;;6.77;4.47;;;9.80;91.10;;;9.73;66.58;96765.50;5008629;28;20053;-41
2021/12/24 07:18:00;;;;;;;10.33;4.30;;;9.80;91.00;;;9.72;66.65;96777.16;5009188;28;20057;-41
2021/12/24 07:20:28;;;;;;;5.37;4.27;;;9.80;91.00;;;9.73;66.84;96776.16;5009379;28;20378;-42
2021/12/24 07:22:56;;;;;;;6.53;4.03;;;9.80;91.10;;;9.75;66.55;96772.31;5009169;28;20071;-41
2021/12/24 07:25:24;;;;;;;7.90;4.73;;;9.80;91.00;;;9.76;66.43;96770.50;5009325;28;20050;-41
2021/12/24 07:27:52;;;;;;;6.07;3.33;;;9.80;91.00;;;9.78;66.32;96774.63;5010416;28;20069;-41
2021/12/24 07:30:21;;;;;;;6.10;3.77;;;9.80;91.00;;;9.79;66.75;96775.44;5009116;28;20050;-41
2021/12/24 07:32:50;;;;;;;5.40;3.40;;;9.80;90.90;;;9.81;66.28;96778.78;5007534;28;20056;-41
2021/12/24 07:35:18;;;;;;;5.07;3.00;;;9.80;90.80;;;9.81;66.58;96779.59;5007750;28;20049;-41
2021/12/24 07:37:46;;;;;;;6.17;3.27;;;9.80;90.80;;;9.81;66.35;96770.78;5008252;28;20034;-41
2021/12/24 07:40:16;;;;;;;4.33;2.93;;;9.80;90.90;;;9.80;66.30;96764.63;5008778;28;20065;-41
2021/12/24 07:42:46;;;;;;;8.30;3.93;;;9.80;90.80;;;9.80;66.19;96758.50;5008640;28;20060;-41
2021/12/24 07:45:16;;;;;;;6.03;3.73;;;9.80;90.90;;;9.79;66.50;96768.31;5039261;28;20061;-41
2021/12/24 07:47:54;;;;;;;4.50;3.23;;;9.80;90.80;;;9.78;66.44;96763.97;5008874;28;20140;-42
2021/12/24 07:52:57;;;;;;;5.33;3.30;;;9.70;90.70;;;9.73;66.13;96766.38;5006748;28;20216;-41
2021/12/24 07:55:25;;;;;;;6.67;2.77;;;9.70;90.90;;;9.73;66.07;96762.84;5008426;28;20042;-42
2021/12/24 07:57:53;;;;;;;5.70;3.67;;;9.70;90.70;;;9.74;66.42;96769.84;5006623;28;20356;-42
2021/12/24 08:00:25;;;;;;;5.83;3.53;;;9.70;90.70;;;9.72;66.04;96764.69;5040047;28;20046;-41
2021/12/24 08:02:58;;;;;;;5.93;3.43;;;9.70;90.70;;;9.68;66.76;96754.59;5007444;28;20053;-42
2021/12/24 08:05:29;;;;;;;6.53;3.40;;;9.70;90.70;;;9.65;66.66;96753.09;5007971;28;20058;-41
2021/12/24 08:07:57;;;;;;;4.93;3.47;;;9.60;90.80;;;9.64;66.13;96749.63;5007367;28;20251;-41
2021/12/24 08:10:27;;;;;;;6.60;4.17;;;9.60;90.90;;;9.63;66.54;96748.00;5008205;28;20118;-41
2021/12/24 08:12:55;;;;;;;7.37;5.60;;;9.60;90.90;;;9.60;66.31;96752.84;5007624;28;20065;-41
2021/12/24 08:15:23;;;;;;;7.57;4.67;;;9.60;91.00;;;9.61;66.17;96755.28;5007702;28;20406;-41
2021/12/24 08:17:50;;;;;;;7.63;6.03;;;9.60;91.10;;;9.60;66.61;96761.63;5008160;28;20060;-41
2021/12/24 08:20:23;;;;;;;11.63;7.80;;;9.60;91.10;;;9.61;66.58;96759.78;5009585;28;20066;-41
2021/12/24 08:22:56;;;;;;;5.10;3.90;;;9.60;91.10;;;9.62;66.31;96758.78;5007338;28;20352;-41
2021/12/24 08:25:24;;;;;;;5.47;3.70;;;9.60;91.30;;;9.62;66.50;96756.13;5008171;28;20054;-41
2021/12/24 08:27:53;;;;;;;5.43;3.50;;;9.60;91.30;;;9.59;66.32;96751.97;5006674;28;20064;-41
2021/12/24 08:30:21;;;;;;;5.70;3.23;;;9.60;91.60;;;9.59;66.50;96759.13;5008393;28;20056;-41
2021/12/24 08:32:49;;;;;;;4.73;3.33;;;9.60;91.50;;;9.57;66.28;96761.16;5007030;28;20054;-41
2021/12/24 08:35:23;;;;;;;5.70;3.10;;;9.50;91.40;;;9.57;66.61;96764.63;5007371;28;20057;-41
2021/12/24 08:37:52;;;;;;;6.70;3.77;;;9.60;91.40;;;9.56;66.32;96765.63;5006289;28;20107;-41
2021/12/24 08:40:20;;;;;;;6.60;4.50;;;9.50;91.30;;;9.56;66.38;96764.81;5008371;28;20054;-41
2021/12/24 08:42:50;;;;;;;4.97;3.40;;;9.50;91.20;;;9.51;66.12;96762.66;5008076;28;20242;-41
2021/12/24 08:45:18;;;;;;;5.60;3.23;;;9.60;90.70;;;9.50;66.49;96762.84;5007249;28;20057;-41
2021/12/24 08:47:46;;;;;;;5.63;3.40;;;9.40;91.00;;;9.49;66.45;96759.38;5007580;28;20069;-41
2021/12/24 08:50:14;;;;;;;3.80;3.10;;;9.40;90.80;;;9.45;66.32;96755.41;5007913;28;20072;-41
2021/12/24 08:52:44;;;;;;;5.27;3.90;;;9.40;90.30;;;9.44;66.24;96757.25;5005975;28;20050;-41
2021/12/24 08:55:14;;;;;;;4.63;2.83;;;9.40;90.50;;;9.45;66.02;96758.06;5006287;28;20041;-41
2021/12/24 08:57:42;;;;;;;6.40;3.73;;;9.40;90.20;;;9.42;66.26;96758.41;5037498;28;20049;-41
2021/12/24 09:00:13;;;;;;;5.37;3.20;;;9.30;90.20;;;9.38;66.23;96750.00;5010958;28;20049;-41
2021/12/24 09:02:41;;;;;;;4.30;3.20;;;9.40;90.20;;;9.36;66.22;96757.28;5016543;28;20053;-41
2021/12/24 09:05:11;;;;;;;7.23;2.93;;;9.40;90.10;;;9.38;66.06;96760.63;5012729;28;20064;-40
2021/12/24 09:07:40;;;;;;;6.47;3.83;;;9.40;90.30;;;9.34;66.17;96761.94;5016618;28;20221;-41
2021/12/24 09:10:11;;;;;;;4.30;3.00;;;9.30;90.40;;;9.36;66.15;96754.63;5015503;28;20042;-41
2021/12/24 09:12:42;;;;;;;5.87;3.40;;;9.30;90.80;;;9.37;66.44;96755.47;5015496;28;20308;-40
2021/12/24 09:15:16;;;;;;;5.17;3.07;;;9.30;90.70;;;9.33;66.49;96749.69;5017047;28;20344;-40
2021/12/24 09:17:46;;;;;;;6.37;3.73;;;9.30;90.60;;;9.34;66.36;96753.16;5010492;28;20042;-40
2021/12/24 09:20:23;;;;;;;6.30;3.53;;;9.30;91.10;;;9.34;66.20;96747.84;5018485;28;20271;-40
2021/12/24 09:22:54;;;;;;;4.47;3.00;;;9.30;91.20;;;9.36;66.51;96751.16;5009481;28;20251;-40
2021/12/24 09:25:24;;;;;;;7.57;4.73;;;9.30;91.30;;;9.37;66.38;96758.13;5009714;28;20061;-41
2021/12/24 09:27:52;;;;;;;8.20;5.30;;;9.30;91.80;;;9.39;66.51;96762.25;5010017;28;20054;-41
2021/12/24 09:30:20;;;;;;;9.13;5.37;;;9.40;91.80;;;9.40;66.74;96766.56;5010621;28;20255;-41
2021/12/24 09:32:49;;;;;;;10.00;6.03;;;9.40;91.90;;;9.42;66.48;96766.38;5009263;28;20060;-41
2021/12/24 09:35:18;;;;;;;6.47;4.50;;;9.40;92.10;;;9.38;66.70;96763.28;5011517;28;20324;-41
2021/12/24 09:37:47;;;;;;;6.73;4.27;;;9.40;92.60;;;9.37;66.73;96769.56;5010919;28;20053;-41
2021/12/24 09:40:18;;;;;;;7.63;4.97;;;9.40;93.10;;;9.30;67.36;96770.44;5010101;28;20348;-41
2021/12/24 09:42:47;;;;;;;12.87;7.30;;;9.30;94.40;;;9.32;67.22;96757.81;5010813;28;20058;-41
2021/12/24 09:45:16;;;;;;;15.43;5.83;;;9.30;95.10;;;9.32;67.29;96763.13;5010118;28;20340;-41
2021/12/24 09:47:45;;;;;;;8.73;5.17;;;9.30;95.70;;;9.29;67.67;96761.66;5010003;28;20344;-41
2021/12/24 09:50:21;;;;;;;6.13;4.50;;;9.30;96.60;;;9.27;67.68;96772.44;5009452;28;20069;-41
2021/12/24 09:52:51;;;;;;;7.27;5.10;;;9.30;97.40;;;9.26;67.95;96765.47;5010157;28;20042;-41
2021/12/24 09:55:26;;;;;;;7.77;5.57;;;9.20;98.20;;;9.26;67.64;96767.31;5010552;28;20244;-41
2021/12/24 09:57:55;;;;;;;8.17;4.83;;;9.20;99.20;;;9.27;67.79;96767.13;5010041;28;20080;-41
2021/12/24 10:00:25;;;;;;;6.57;4.33;;;9.20;99.90;;;9.26;67.92;96760.16;5009798;28;20374;-41
2021/12/24 10:02:57;;;;;;;7.23;4.40;;;9.20;99.90;;;9.25;68.24;96755.84;5008627;28;20050;-41
2021/12/24 10:05:33;;;;;;;6.43;4.60;;;9.20;99.90;;;9.24;67.95;96748.88;5009194;28;20050;-41
2021/12/24 10:08:19;;;;;;;4.90;3.93;;;9.10;99.90;;;9.21;68.16;96753.75;5010391;28;20289;-41
2021/12/24 10:10:52;;;;;;;5.88;3.90;;;9.10;99.90;;;9.18;68.86;96749.59;5010374;28;20340;-41
2021/12/24 10:13:43;;;;;;;5.47;4.07;;;9.10;99.90;;;9.15;69.07;96749.94;5009228;28;20050;-41
2021/12/24 10:16:18;;;;;;;5.97;3.70;;;9.10;99.90;;;9.17;68.53;96739.97;5010290;28;20049;-41
2021/12/24 10:18:55;;;;;;;7.10;4.23;;;9.10;99.90;;;9.16;68.60;96737.50;5010208;28;20260;-41
2021/12/24 10:21:32;;;;;;;6.07;4.40;;;9.10;99.90;;;9.14;68.65;96740.31;5009337;28;20260;-41
2021/12/24 10:24:10;;;;;;;6.60;4.20;;;9.00;99.90;;;9.15;69.09;96733.16;5009850;28;20062;-41
2021/12/24 10:26:51;;;;;;;8.50;5.33;;;9.00;99.90;;;9.11;69.49;96738.03;5010454;28;20060;-41
2021/12/24 10:29:37;;;;;;;7.10;4.77;;;9.00;99.90;;;9.11;68.95;96730.06;5009108;28;20083;-41
2021/12/24 10:32:20;;;;;;;6.90;4.70;;;9.00;99.90;;;9.07;69.46;96732.22;5007632;28;20332;-42
2021/12/24 10:34:48;;;;;;;7.87;4.57;;;9.00;99.90;;;9.07;69.27;96721.59;5010074;28;20078;-41
2021/12/24 10:37:22;;;;;;;9.13;5.77;;;9.00;99.90;;;9.10;69.03;96711.63;5009130;28;20352;-41
2021/12/24 10:39:58;;;;;;;7.32;5.30;;;9.00;99.90;;;9.10;69.30;96717.78;5009801;28;20442;-41
2021/12/24 10:42:38;;;;;;;10.47;7.87;;;9.00;99.90;;;9.11;69.06;96716.78;5008929;28;20042;-42
2021/12/24 10:45:23;;;;;;;14.07;9.83;;;9.00;99.90;;;9.13;69.15;96706.81;5008761;28;20048;-41
2021/12/24 10:47:51;;;;;;;8.70;6.20;;;9.00;99.90;;;9.14;69.11;96705.78;5009451;28;20390;-41
2021/12/24 10:53:13;;;;;;;11.73;8.10;;;9.00;99.90;;;9.16;69.33;96702.97;5008319;28;20056;-41
2021/12/24 10:55:54;;;;;;;7.90;4.70;;;9.00;99.90;;;9.16;69.33;96690.50;5009629;28;20054;-41
2021/12/24 10:58:26;;;;;;;14.27;7.57;;;9.00;99.90;;;9.17;69.16;96700.16;5008314;28;20041;-41
2021/12/24 11:01:01;;;;;;;9.97;6.53;;;9.00;99.90;;;9.17;69.31;96692.19;5010468;28;20260;-41
2021/12/24 11:03:32;;;;;;;12.63;7.70;;;9.00;99.90;;;9.17;69.40;96694.84;5010022;28;20089;-41
2021/12/24 11:06:08;;;;;;;9.20;6.37;;;9.10;99.90;;;9.18;69.12;96693.00;5008289;28;20061;-41
2021/12/24 11:08:37;;;;;;;10.93;6.37;;;9.00;99.90;;;9.18;69.28;96691.16;5008462;28;20062;-42
2021/12/24 11:11:10;;;;;;;10.33;5.93;;;9.00;99.90;;;9.20;69.60;96691.00;5008248;28;20130;-42
2021/12/24 11:13:40;;;;;;;11.53;7.23;;;9.10;99.90;;;9.20;69.50;96688.34;5009173;28;20068;-41
2021/12/24 11:16:14;;;;;;;11.63;8.07;;;9.10;99.90;;;9.20;69.31;96683.03;5008868;28;20054;-41
2021/12/24 11:18:46;;;;;;;13.37;8.23;;;9.10;99.90;;;9.18;69.62;96685.84;5008342;28;20352;-41
2021/12/24 11:21:26;;;;;;;7.80;4.80;;;9.10;99.90;;;9.17;69.63;96686.88;5009141;28;20060;-42
2021/12/24 11:23:55;;;;;;;8.67;5.10;;;9.10;99.90;;;9.15;69.45;96690.69;5009445;28;20079;-42
2021/12/24 11:26:32;;;;;;;11.43;6.83;;;9.00;99.90;;;9.15;69.71;96691.53;5007754;28;20344;-42
2021/12/24 11:29:00;;;;;;;12.27;7.83;;;9.00;99.90;;;9.16;69.85;96685.19;5009352;28;20050;-42
2021/12/24 11:31:32;;;;;;;12.87;7.23;;;9.00;99.90;;;9.16;69.77;96692.34;5008407;28;20068;-42
2021/12/24 11:34:00;;;;;;;9.07;6.17;;;9.00;99.90;;;9.13;69.60;96690.03;5007893;28;20053;-42
2021/12/24 11:36:30;;;;;;;9.57;6.50;;;9.00;99.90;;;9.06;70.09;96689.91;5008798;28;20057;-42
2021/12/24 11:39:03;;;;;;;6.87;5.00;;;8.90;99.90;;;9.01;70.29;96686.94;5009786;28;20263;-41
2021/12/24 11:41:33;;;;;;;5.70;3.97;;;8.80;99.90;;;8.99;70.38;96681.00;5008208;28;20058;-41
2021/12/24 11:44:05;;;;;;;9.13;6.37;;;8.80;99.90;;;8.96;70.20;96673.38;5008239;28;20050;-42
2021/12/24 11:46:37;;;;;;;11.13;6.30;;;8.80;99.90;;;8.99;70.04;96673.84;5008115;28;20054;-42
2021/12/24 11:49:06;;;;;;;16.33;8.43;;;8.80;99.90;;;9.03;70.51;96669.00;5008277;28;20045;-42
2021/12/24 11:51:40;;;;;;;11.67;6.87;;;8.90;99.90;;;9.10;70.42;96663.84;5007619;28;20060;-42
2021/12/24 11:54:11;;;;;;;8.87;5.67;;;8.90;99.90;;;9.13;70.31;96659.00;5008833;28;20352;-42
2021/12/24 11:56:51;;;;;;;11.07;6.23;;;9.00;99.90;;;9.16;70.19;96660.47;5008493;28;20046;-42
2021/12/24 11:59:40;;;;;;;6.67;4.87;;;9.00;99.90;;;9.18;70.28;96659.28;5009376;28;20056;-41
2021/12/24 12:02:08;;;;;;;7.07;4.37;;;9.10;99.90;;;9.22;70.49;96657.94;5007952;28;20742;-42
2021/12/24 12:04:36;;;;;;;7.27;4.73;;;9.10;99.90;;;9.25;70.57;96656.78;5006908;28;20056;-42
2021/12/24 12:07:18;;;;;;;5.53;4.30;;;9.20;99.90;;;9.29;70.45;96649.28;5007251;28;20050;-42
2021/12/24 12:09:47;;;;;;;4.27;3.23;;;9.20;99.90;;;9.32;70.74;96641.75;5007968;28;20367;-42
2021/12/24 12:12:16;;;;;;;4.50;3.37;;;9.30;99.90;;;9.36;70.68;96636.91;5007957;28;20042;-41
2021/12/24 12:14:44;;;;;;;4.97;3.10;;;9.40;99.90;;;9.40;70.78;96632.91;5007878;28;20057;-41
2021/12/24 12:17:24;;;;;;;3.10;2.20;;;9.40;99.90;;;9.40;70.47;96633.75;5008342;28;20060;-42
2021/12/24 12:20:00;;;;;;;3.30;2.40;;;9.40;99.90;;;9.41;70.57;96630.06;5007131;28;20045;-41
2021/12/24 12:25:14;;;;;;;4.53;2.87;;;9.40;99.90;;;9.41;70.76;96632.72;5007061;28;20054;-42
2021/12/24 12:27:55;;;;;;;3.83;2.77;;;9.40;99.90;;;9.41;70.97;96627.41;5008317;28;20046;-42